Chicago, Illinois
Traffic Map
Current Weather Conditions
Chicago, Illinois
Broken Clouds
Broken Clouds

Feels Like: 8°
Wind Chill: Ceiling: 2800
Heat Index: Visibility: 10mi
Dew Point: Wind: 7mph
Humidity: 69% Direction: 220° (SW)
Pressure: 30.28in Gusts: 0mph
Raw Report DataKMDW 220753Z 22006KT 10SM BKN028 09/04 A3028 RMK AO2 SLP256 T00940039
Traffic Incident Summary
Active as of:
Severity:
Category:
InformationThere was an issue retrieving the traffic information for this location. Please try a different location or try again shortly.
Advertisements
Track Severe Weather on mobile